Albion, Washington
Current Conditions -  °F | °C
As of 3:53 AM on Monday 24 Nov 2014 (Local Time) from KPUW Reporting Station
Clear Clear  
Wind Chill: 26°   Ceiling: Unl
Heat Index: 35°   Visibility: 10mi
Dew Point: 31°   Wind: 15mph
Humidity: 85%   Direction: 250°WSW
Pressure: 30.29"   Gusts: NA
Location:  46.79°N, 117.25°W
Report Text: KPUW 241153Z AUTO 25013KT 10SM CLR 02/M01 A3029 RMK AO2 SLP273 70019 T00171006 10028 20017 51015
Loading
Personal Weather Stations






























Interactive Weather Map New forecast layout! Learn more

10-Day Weather Forecast

Advertisements
Track Severe Weather on mobile